Time;durP1;ratioP1;P1;durP2;ratioP2;P2;SDS_P1;SDS_P2;PMS_P1;PMS_P2;Temp;Humidity;BMP_temperature;BMP_pressure;BME280_temperature;BME280_humidity;BME280_pressure;Samples;Min_cycle;Max_cycle;Signal;HPM_P1;HPM_P2
2021/12/14 00:00:24;;;;;;;4.87;3.27;;;;;;;0.49;100.00;94837.91;5034949;28;20187;-63
2021/12/14 00:02:52;;;;;;;4.90;3.33;;;;;;;0.57;100.00;94830.88;5034692;28;20189;-63
2021/12/14 00:05:21;;;;;;;5.03;3.27;;;;;;;0.62;100.00;94831.50;5034563;28;20208;-61
2021/12/14 00:07:47;;;;;;;4.60;3.17;;;;;;;0.64;100.00;94834.75;5035156;28;20296;-63
2021/12/14 00:10:32;;;;;;;6.00;3.43;;;;;;;0.67;100.00;94830.41;5034506;28;20185;-64
2021/12/14 00:13:07;;;;;;;4.37;3.23;;;;;;;0.67;100.00;94834.59;5034643;28;20573;-64
2021/12/14 00:15:32;;;;;;;4.93;3.60;;;;;;;0.71;100.00;94836.09;5033626;28;20196;-64
2021/12/14 00:18:03;;;;;;;4.93;3.73;;;;;;;0.65;100.00;94838.84;5034512;28;20182;-63
2021/12/14 00:20:39;;;;;;;3.87;3.23;;;;;;;0.45;100.00;94819.72;5032204;28;20189;-61
2021/12/14 00:25:44;;;;;;;5.40;3.27;;;;;;;0.58;100.00;94845.03;5034271;28;20201;-65
2021/12/14 00:28:26;;;;;;;3.97;3.03;;;;;;;0.56;100.00;94837.59;5034313;28;20535;-61
2021/12/14 00:30:55;;;;;;;4.50;3.20;;;;;;;0.65;100.00;94846.34;5034671;28;20259;-66
2021/12/14 00:33:24;;;;;;;4.53;3.20;;;;;;;0.65;100.00;94853.88;5032948;28;20173;-64
2021/12/14 00:35:50;;;;;;;4.43;3.17;;;;;;;0.65;100.00;94853.88;5034188;28;20209;-60
2021/12/14 00:38:21;;;;;;;5.00;3.53;;;;;;;0.55;100.00;94852.63;5034119;28;20235;-63
2021/12/14 00:40:53;;;;;;;4.20;3.10;;;;;;;0.57;100.00;94855.88;5034258;28;20548;-64
2021/12/14 00:43:19;;;;;;;4.53;3.07;;;;;;;0.66;100.00;94855.50;5033995;28;20260;-65
2021/12/14 00:45:45;;;;;;;4.23;2.97;;;;;;;0.58;100.00;94850.84;5034109;28;20354;-64
2021/12/14 00:48:12;;;;;;;5.40;3.83;;;;;;;0.54;100.00;94848.53;5034014;28;20177;-64
2021/12/14 00:50:41;;;;;;;5.63;3.27;;;;;;;0.53;100.00;94852.72;5033989;28;20212;-66
2021/12/14 00:53:06;;;;;;;4.23;3.23;;;;;;;0.59;100.00;94851.63;5033703;28;20185;-64
2021/12/14 00:55:36;;;;;;;6.43;3.93;;;;;;;0.70;100.00;94859.50;5033865;28;20189;-64
2021/12/14 00:58:04;;;;;;;5.43;3.40;;;;;;;0.73;100.00;94864.34;5034044;28;20183;-64
2021/12/14 01:00:35;;;;;;;4.33;3.00;;;;;;;0.71;100.00;94859.41;5033682;28;20193;-60
2021/12/14 01:03:03;;;;;;;3.60;3.03;;;;;;;0.68;100.00;94861.25;5033685;28;20546;-65
2021/12/14 01:05:33;;;;;;;2.73;2.30;;;;;;;0.61;100.00;94862.38;5033581;28;20191;-61
2021/12/14 01:08:00;;;;;;;3.70;3.10;;;;;;;0.67;100.00;94859.59;5033261;28;20217;-65
2021/12/14 01:10:33;;;;;;;6.97;3.67;;;;;;;0.67;100.00;94857.94;5033252;28;20247;-63
2021/12/14 01:13:04;;;;;;;5.87;3.57;;;;;;;0.79;100.00;94859.06;5033569;28;20240;-64
2021/12/14 01:16:00;;;;;;;7.33;3.37;;;;;;;0.69;100.00;94846.16;5032545;28;20178;-60
2021/12/14 01:24:02;;;;;;;4.00;3.30;;;;;;;0.80;100.00;94850.72;5033700;28;20177;-68
2021/12/14 01:26:31;;;;;;;4.83;2.97;;;;;;;0.70;100.00;94859.50;5033339;28;20718;-63
2021/12/14 01:28:57;;;;;;;4.60;3.57;;;;;;;0.66;100.00;94851.31;5033157;28;20189;-63
2021/12/14 01:31:32;;;;;;;5.30;3.53;;;;;;;0.69;100.00;94851.16;5031869;28;20210;-65
2021/12/14 01:34:02;;;;;;;3.47;2.90;;;;;;;0.61;100.00;94847.38;5033224;28;20174;-65
2021/12/14 01:39:22;;;;;;;4.67;3.33;;;;;;;0.59;100.00;94846.63;5032929;28;20659;-62
2021/12/14 01:41:58;;;;;;;5.13;3.27;;;;;;;0.65;100.00;94841.34;5033362;28;20205;-64
2021/12/14 01:44:28;;;;;;;4.70;3.40;;;;;;;0.65;100.00;94847.19;5032895;28;20173;-64
2021/12/14 01:47:01;;;;;;;4.30;2.90;;;;;;;0.57;100.00;94838.38;5033314;28;20226;-64
2021/12/14 01:49:28;;;;;;;5.67;3.83;;;;;;;0.62;100.00;94841.50;5031474;28;20185;-64
2021/12/14 01:51:56;;;;;;;4.97;2.93;;;;;;;0.59;100.00;94849.13;5033158;28;20208;-65
2021/12/14 01:54:27;;;;;;;4.73;3.10;;;;;;;0.62;100.00;94836.50;5032636;28;20187;-64
2021/12/14 01:56:53;;;;;;;5.47;3.27;;;;;;;0.70;100.00;94842.00;5031452;28;20213;-66
2021/12/14 01:59:28;;;;;;;4.60;3.10;;;;;;;0.72;100.00;94842.72;5032682;28;20181;-64
2021/12/14 02:02:07;;;;;;;4.53;3.60;;;;;;;0.70;100.00;94847.00;5033182;28;20595;-65
2021/12/14 02:04:33;;;;;;;4.97;3.33;;;;;;;0.75;100.00;94852.59;5032608;28;20176;-63
2021/12/14 02:07:05;;;;;;;5.43;3.70;;;;;;;0.95;100.00;94847.50;5031187;28;20236;-63
2021/12/14 02:09:33;;;;;;;5.03;3.60;;;;;;;0.72;100.00;94848.56;5032577;28;20205;-65
2021/12/14 02:12:06;;;;;;;5.63;3.60;;;;;;;0.68;100.00;94842.06;5032483;28;20202;-64
2021/12/14 02:14:32;;;;;;;3.60;3.00;;;;;;;0.72;100.00;94848.56;5031094;28;20196;-61
2021/12/14 02:17:01;;;;;;;4.43;3.60;;;;;;;0.88;100.00;94837.84;5031440;28;20664;-65
2021/12/14 02:19:28;;;;;;;4.53;3.53;;;;;;;0.83;100.00;94833.88;5032609;28;20196;-61
2021/12/14 02:21:57;;;;;;;4.67;3.73;;;;;;;0.98;100.00;94844.06;5031280;28;20593;-61
2021/12/14 02:24:25;;;;;;;4.77;3.40;;;;;;;1.10;100.00;94846.03;5039644;22;20233;-63
2021/12/14 02:26:53;;;;;;;4.43;3.63;;;;;;;0.89;100.00;94834.50;5032272;28;20221;-61
2021/12/14 02:29:34;;;;;;;3.80;3.30;;;;;;;0.93;100.00;94846.78;5032484;28;20198;-62
2021/12/14 02:32:13;;;;;;;5.03;3.40;;;;;;;0.72;100.00;94840.22;5032211;28;20292;-66
2021/12/14 02:34:54;;;;;;;5.53;3.73;;;;;;;0.72;100.00;94843.56;5032390;28;20559;-64
2021/12/14 02:37:35;;;;;;;4.63;3.40;;;;;;;0.70;100.00;94852.00;5032381;28;20207;-66
2021/12/14 02:40:14;;;;;;;4.90;3.47;;;;;;;0.67;100.00;94849.59;5030804;28;20648;-66
2021/12/14 02:42:40;;;;;;;4.60;3.27;;;;;;;0.63;100.00;94848.94;5033903;28;20193;-63
2021/12/14 02:45:06;;;;;;;6.37;3.73;;;;;;;0.62;100.00;94844.81;5038613;28;20188;-65
2021/12/14 02:47:31;;;;;;;6.47;3.93;;;;;;;0.64;100.00;94850.56;5038633;28;20630;-61
2021/12/14 02:49:57;;;;;;;4.67;3.57;;;;;;;0.75;100.00;94852.59;5038898;28;20322;-63
2021/12/14 02:52:33;;;;;;;4.80;3.33;;;;;;;0.65;100.00;94852.19;5037212;28;20722;-63
2021/12/14 02:55:05;;;;;;;5.27;3.87;;;;;;;0.62;100.00;94847.31;5037547;28;20169;-65
2021/12/14 02:57:35;;;;;;;4.73;3.70;;;;;;;0.62;100.00;94847.31;5037256;28;20299;-63
2021/12/14 03:00:00;;;;;;;6.10;4.17;;;;;;;0.59;100.00;94857.44;5038553;28;20256;-61
2021/12/14 03:02:31;;;;;;;4.77;3.37;;;;;;;0.52;100.00;94851.09;5037152;28;20649;-67
2021/12/14 03:05:01;;;;;;;5.17;4.03;;;;;;;0.47;100.00;94847.16;5038489;28;20174;-65
2021/12/14 03:07:31;;;;;;;5.60;3.20;;;;;;;0.45;100.00;94859.72;5037050;28;20236;-62
2021/12/14 03:10:18;;;;;;;5.07;3.83;;;;;;;0.39;100.00;94859.16;5038699;28;20179;-65
2021/12/14 03:12:54;;;;;;;5.67;3.63;;;;;;;0.38;100.00;94862.56;5037553;28;20188;-64
2021/12/14 03:15:45;;;;;;;6.10;4.43;;;;;;;0.38;100.00;94857.56;5038546;28;20562;-67
2021/12/14 03:18:11;;;;;;;5.67;3.97;;;;;;;0.44;100.00;94852.31;5038764;28;20271;-64
2021/12/14 03:20:45;;;;;;;6.67;4.50;;;;;;;0.33;100.00;94861.94;5038376;28;20276;-64
2021/12/14 03:23:16;;;;;;;6.77;4.37;;;;;;;0.26;100.00;94861.41;5038643;28;20186;-63
2021/12/14 03:25:47;;;;;;;5.67;4.17;;;;;;;0.28;100.00;94862.16;5038461;28;20201;-60
2021/12/14 03:28:14;;;;;;;6.67;4.20;;;;;;;0.25;100.00;94866.44;5038407;28;20232;-61
2021/12/14 03:30:46;;;;;;;5.43;4.40;;;;;;;0.34;100.00;94859.38;5038139;28;20206;-65
2021/12/14 03:33:18;;;;;;;8.83;6.10;;;;;;;0.28;100.00;94866.31;5038203;28;20273;-64
2021/12/14 03:35:49;;;;;;;8.17;4.57;;;;;;;0.32;100.00;94865.31;5038260;28;20193;-59
2021/12/14 03:38:20;;;;;;;6.50;4.10;;;;;;;0.28;100.00;94868.81;5038573;28;20225;-65
2021/12/14 03:41:00;;;;;;;6.23;4.10;;;;;;;0.31;100.00;94864.50;5038149;28;20207;-64
2021/12/14 03:43:26;;;;;;;5.50;3.60;;;;;;;0.30;100.00;94870.38;5037223;28;20555;-62
2021/12/14 03:45:52;;;;;;;4.57;3.63;;;;;;;0.34;100.00;94866.06;5038425;28;20205;-65
2021/12/14 03:48:22;;;;;;;6.27;4.53;;;;;;;0.41;100.00;94875.72;5038545;28;20200;-65
2021/12/14 03:50:48;;;;;;;6.50;4.00;;;;;;;0.32;100.00;94877.81;5038037;28;20227;-60
2021/12/14 03:53:13;;;;;;;8.33;4.30;;;;;;;0.47;100.00;94879.66;5038008;28;20243;-64
2021/12/14 03:55:43;;;;;;;6.07;4.33;;;;;;;0.41;100.00;94872.41;5033132;28;20638;-65
2021/12/14 03:58:13;;;;;;;6.63;4.13;;;;;;;0.31;100.00;94876.19;5035460;28;20533;-65
2021/12/14 04:00:47;;;;;;;6.23;4.13;;;;;;;0.31;100.00;94872.00;5034824;28;20240;-66
2021/12/14 04:03:15;;;;;;;6.50;4.13;;;;;;;0.33;100.00;94872.75;5033625;28;20286;-61
2021/12/14 04:05:44;;;;;;;9.43;5.10;;;;;;;0.30;100.00;94875.38;5033549;28;20247;-64
2021/12/14 04:08:12;;;;;;;7.13;4.60;;;;;;;0.36;100.00;94882.63;5034974;28;20220;-60
2021/12/14 04:10:42;;;;;;;5.97;4.37;;;;;;;0.30;100.00;94884.56;5033355;28;20266;-65
2021/12/14 04:13:13;;;;;;;7.50;4.47;;;;;;;0.27;100.00;94883.00;5034745;28;20196;-60
2021/12/14 04:15:41;;;;;;;7.00;5.03;;;;;;;0.32;100.00;94883.63;5034538;28;20208;-65
2021/12/14 04:18:07;;;;;;;6.77;4.57;;;;;;;0.47;100.00;94887.16;5034745;28;20210;-64
2021/12/14 04:20:36;;;;;;;5.67;4.20;;;;;;;0.35;100.00;94885.16;5034589;28;20181;-63
2021/12/14 04:23:08;;;;;;;7.57;4.93;;;;;;;0.38;100.00;94885.88;5033293;28;20207;-63
2021/12/14 04:25:35;;;;;;;7.30;4.70;;;;;;;0.30;100.00;94897.06;5034360;28;20673;-63
2021/12/14 04:28:06;;;;;;;6.37;4.30;;;;;;;0.40;100.00;94898.31;5034538;28;20303;-62
2021/12/14 04:30:34;;;;;;;5.80;4.43;;;;;;;0.38;100.00;94895.88;5034239;28;20170;-64
2021/12/14 04:33:02;;;;;;;4.93;4.13;;;;;;;0.34;100.00;94901.06;5034365;28;20197;-64
2021/12/14 04:35:32;;;;;;;6.53;4.73;;;;;;;0.34;100.00;94896.06;5033165;28;20273;-63
2021/12/14 04:37:59;;;;;;;7.20;5.07;;;;;;;0.28;100.00;94898.81;5034377;28;20190;-65
2021/12/14 04:54:00;;;;;;;6.40;5.23;;;;;;;0.43;100.00;94903.97;5034584;28;20291;-64
2021/12/14 04:56:30;;;;;;;7.10;5.00;;;;;;;0.50;100.00;94907.06;5034001;28;20208;-65
2021/12/14 04:59:05;;;;;;;9.73;5.97;;;;;;;0.47;100.00;94905.47;5034337;28;20194;-63
2021/12/14 05:01:38;;;;;;;8.27;6.40;;;;;;;0.45;100.00;94898.91;5032525;28;20203;-62
2021/12/14 05:04:07;;;;;;;6.60;4.50;;;;;;;0.44;100.00;94909.81;5034370;28;20213;-64
2021/12/14 05:06:50;;;;;;;8.43;5.13;;;;;;;0.39;100.00;94912.50;5033179;28;20232;-62
2021/12/14 05:09:21;;;;;;;9.17;5.33;;;;;;;0.40;100.00;94908.31;5034166;28;20194;-67
2021/12/14 05:12:00;;;;;;;7.30;5.40;;;;;;;0.48;100.00;94912.13;5033407;28;20295;-65
2021/12/14 05:14:28;;;;;;;8.53;5.40;;;;;;;0.41;100.00;94915.75;5033354;28;20531;-68
2021/12/14 05:16:56;;;;;;;10.27;6.23;;;;;;;0.60;100.00;94913.28;5033347;28;20227;-64
2021/12/14 05:19:24;;;;;;;8.03;5.87;;;;;;;0.55;100.00;94913.47;5031989;28;20197;-65
2021/12/14 05:21:50;;;;;;;10.70;6.40;;;;;;;0.49;100.00;94907.91;5033335;28;20202;-63
2021/12/14 05:24:22;;;;;;;7.93;5.50;;;;;;;0.45;100.00;94909.72;5032161;28;20205;-63
2021/12/14 05:26:49;;;;;;;8.50;6.47;;;;;;;0.41;100.00;94920.75;5032111;28;20226;-66
2021/12/14 05:29:15;;;;;;;9.70;5.93;;;;;;;0.46;100.00;94916.38;5033030;28;20187;-66
2021/12/14 05:31:46;;;;;;;8.70;6.20;;;;;;;0.44;100.00;94909.81;5032849;28;20279;-63
2021/12/14 05:34:12;;;;;;;10.37;6.07;;;;;;;0.52;100.00;94911.13;5033010;28;20572;-63
2021/12/14 05:36:41;;;;;;;8.77;6.27;;;;;;;0.56;100.00;94919.28;5033124;28;20200;-64
2021/12/14 05:39:25;;;;;;;10.30;5.77;;;;;;;0.61;100.00;94919.91;5031737;28;20308;-65
2021/12/14 05:44:44;;;;;;;8.07;5.93;;;;;;;0.48;100.00;94923.81;5024263;28;20695;-61
2021/12/14 05:47:17;;;;;;;9.87;6.53;;;;;;;0.50;100.00;94929.56;5032382;28;20716;-61
2021/12/14 05:49:44;;;;;;;8.87;6.10;;;;;;;0.43;100.00;94923.16;5032642;28;20185;-66
2021/12/14 05:52:18;;;;;;;10.43;6.43;;;;;;;0.47;100.00;94932.16;5032840;28;20212;-61
2021/12/14 05:54:44;;;;;;;10.17;6.00;;;;;;;0.51;100.00;94936.16;5032714;28;20224;-65
2021/12/14 05:57:15;;;;;;;11.03;6.23;;;;;;;0.55;100.00;94933.47;5032432;28;20221;-61
2021/12/14 05:59:40;;;;;;;9.20;6.03;;;;;;;0.51;100.00;94934.47;5032540;28;20640;-66
2021/12/14 06:02:08;;;;;;;11.70;6.30;;;;;;;0.50;100.00;94942.06;5032548;28;20222;-65
2021/12/14 06:04:40;;;;;;;11.67;5.97;;;;;;;0.45;100.00;94946.41;5032808;28;20196;-67
2021/12/14 06:07:07;;;;;;;9.53;6.20;;;;;;;0.49;100.00;94945.41;5032491;28;20656;-61
2021/12/14 06:09:37;;;;;;;11.23;6.43;;;;;;;0.51;100.00;94943.66;5032244;28;20198;-64
2021/12/14 06:12:13;;;;;;;13.17;7.07;;;;;;;0.58;100.00;94942.53;5030801;28;20248;-61
2021/12/14 06:14:51;;;;;;;12.23;7.33;;;;;;;0.61;100.00;94944.91;5032414;28;20186;-61
2021/12/14 06:17:22;;;;;;;14.27;6.80;;;;;;;0.65;100.00;94946.41;5030528;28;20768;-64
2021/12/14 06:19:55;;;;;;;10.77;6.87;;;;;;;0.58;100.00;94943.38;5032175;28;20190;-66
2021/12/14 06:22:23;;;;;;;12.73;6.87;;;;;;;0.59;100.00;94947.47;5032061;28;20599;-61
2021/12/14 06:24:58;;;;;;;12.17;6.43;;;;;;;0.49;100.00;94953.72;5032325;28;20228;-64
2021/12/14 06:27:29;;;;;;;10.80;6.87;;;;;;;0.56;100.00;94949.31;5031974;28;20216;-64
2021/12/14 06:30:11;;;;;;;13.57;7.30;;;;;;;0.68;100.00;94957.13;5031908;28;20279;-64
2021/12/14 06:32:51;;;;;;;11.10;7.33;;;;;;;0.64;100.00;94960.63;5031943;28;20197;-65
2021/12/14 06:35:22;;;;;;;11.23;6.83;;;;;;;0.66;100.00;94958.03;5031775;28;20247;-61
2021/12/14 06:38:26;;;;;;;12.57;6.70;;;;;;;0.61;100.00;94959.91;5030838;28;20243;-60
2021/12/14 06:41:10;;;;;;;10.63;6.73;;;;;;;0.63;100.00;94968.97;5032416;28;20275;-61
2021/12/14 06:43:57;;;;;;;12.73;5.40;;;;;;;0.68;100.00;94966.28;5031954;28;20185;-63
2021/12/14 06:46:27;;;;;;;11.30;6.97;;;;;;;0.67;100.00;94974.66;5031853;28;20214;-66
2021/12/14 06:49:01;;;;;;;12.60;6.63;;;;;;;0.64;100.00;94973.13;5032421;28;20219;-65
2021/12/14 06:51:31;;;;;;;11.10;6.70;;;;;;;0.72;100.00;94977.81;5031910;28;20619;-60
2021/12/14 06:54:07;;;;;;;9.47;7.17;;;;;;;0.74;100.00;94981.06;5031573;28;20639;-64
2021/12/14 06:56:35;;;;;;;9.43;6.50;;;;;;;0.65;100.00;94984.75;5032041;28;20212;-66
2021/12/14 06:59:07;;;;;;;12.53;7.13;;;;;;;0.62;100.00;94981.56;5030358;28;20659;-66
2021/12/14 07:01:37;;;;;;;10.67;6.30;;;;;;;0.65;100.00;94991.41;5031869;28;20248;-64
2021/12/14 07:04:09;;;;;;;10.97;7.80;;;;;;;0.65;100.00;94997.25;5031736;28;20177;-65
2021/12/14 07:06:39;;;;;;;10.53;7.50;;;;;;;0.72;100.00;94988.63;5030360;28;20214;-65
2021/12/14 07:09:10;;;;;;;10.83;6.70;;;;;;;0.76;100.00;94997.63;5030331;28;20181;-64
2021/12/14 07:11:37;;;;;;;10.13;6.53;;;;;;;0.88;100.00;94995.47;5030348;28;20216;-64
2021/12/14 07:14:50;;;;;;;10.50;6.70;;;;;;;1.04;100.00;94999.78;5031731;28;20194;-64
2021/12/14 07:17:28;;;;;;;10.73;7.70;;;;;;;1.08;100.00;94992.94;5008511;28;20256;-60
2021/12/14 07:20:23;;;;;;;13.97;8.30;;;;;;;1.02;100.00;94999.03;5031882;28;20643;-61
2021/12/14 07:23:04;;;;;;;12.43;7.87;;;;;;;1.05;100.00;95005.59;5017723;28;20312;-65
2021/12/14 07:25:37;;;;;;;12.37;6.73;;;;;;;1.01;100.00;95001.59;5031808;28;20328;-64
2021/12/14 07:28:15;;;;;;;11.17;6.90;;;;;;;1.15;100.00;95002.63;5031480;28;20265;-64
2021/12/14 07:30:56;;;;;;;10.47;7.03;;;;;;;1.09;100.00;95005.38;5035155;28;20570;-63
2021/12/14 07:33:23;;;;;;;12.37;7.23;;;;;;;1.02;100.00;95004.03;5033893;28;20182;-63
2021/12/14 07:36:05;;;;;;;12.53;7.30;;;;;;;0.96;100.00;95000.97;5035879;28;20668;-63
2021/12/14 07:38:37;;;;;;;10.50;6.70;;;;;;;1.03;100.00;95012.38;5035559;28;20205;-64
2021/12/14 07:41:14;;;;;;;12.53;7.77;;;;;;;1.01;100.00;95014.13;5035524;28;20224;-65
2021/12/14 07:43:45;;;;;;;11.97;7.13;;;;;;;1.10;100.00;95013.72;5033822;28;20192;-65
2021/12/14 07:46:20;;;;;;;15.47;7.83;;;;;;;1.25;100.00;95020.59;5033943;28;20301;-66
2021/12/14 07:48:54;;;;;;;15.37;7.53;;;;;;;1.16;100.00;95019.28;5033761;28;20269;-63
2021/12/14 07:51:22;;;;;;;14.30;7.73;;;;;;;1.13;100.00;95009.38;5035445;28;20203;-66
2021/12/14 07:53:52;;;;;;;10.97;7.40;;;;;;;1.17;100.00;95020.88;5034874;28;20189;-65
2021/12/14 07:56:37;;;;;;;12.37;7.90;;;;;;;1.41;100.00;95014.84;5035332;28;20288;-65
2021/12/14 07:59:10;;;;;;;12.27;7.77;;;;;;;1.40;100.00;95014.91;5034718;28;20171;-64
2021/12/14 08:01:35;;;;;;;12.00;7.30;;;;;;;1.42;100.00;95023.97;5034730;28;20208;-64
2021/12/14 08:04:06;;;;;;;11.87;7.23;;;;;;;1.30;100.00;95031.19;5033206;28;20175;-65
2021/12/14 08:07:04;;;;;;;12.23;7.70;;;;;;;1.42;100.00;95030.66;5034653;28;20314;-63
2021/12/14 08:09:49;;;;;;;12.13;7.30;;;;;;;1.38;100.00;95034.19;5001777;28;20251;-64
2021/12/14 08:12:35;;;;;;;12.53;7.60;;;;;;;1.46;100.00;95032.97;5033258;28;20692;-64
2021/12/14 08:15:13;;;;;;;14.53;8.00;;;;;;;1.63;100.00;95029.75;5034678;28;20640;-64
2021/12/14 08:17:40;;;;;;;15.13;8.33;;;;;;;1.49;100.00;95037.88;5032997;28;20260;-63
2021/12/14 08:20:13;;;;;;;11.30;7.27;;;;;;;1.32;100.00;95037.78;5034493;28;20190;-66
2021/12/14 08:22:41;;;;;;;12.07;8.27;;;;;;;1.32;100.00;95040.28;5034377;28;20190;-64
2021/12/14 08:25:11;;;;;;;13.83;8.20;;;;;;;1.36;100.00;95035.94;5034560;28;20209;-64
2021/12/14 08:27:38;;;;;;;12.40;8.27;;;;;;;1.25;100.00;95038.91;5033923;28;20595;-61
2021/12/14 08:30:09;;;;;;;11.10;7.80;;;;;;;1.19;100.00;95044.16;5034246;28;20178;-61
2021/12/14 08:32:37;;;;;;;14.93;8.23;;;;;;;1.20;100.00;95035.78;5032829;28;20780;-64
2021/12/14 08:35:07;;;;;;;12.80;7.80;;;;;;;1.20;100.00;95038.31;5034189;28;20647;-63
2021/12/14 08:37:38;;;;;;;11.77;7.70;;;;;;;1.16;100.00;95033.47;5033888;28;20198;-63
2021/12/14 08:40:24;;;;;;;11.80;7.83;;;;;;;1.30;100.00;95031.19;5033329;28;20273;-66
2021/12/14 08:46:13;;;;;;;14.60;8.77;;;;;;;1.47;100.00;95029.63;5024507;28;20233;-62
2021/12/14 08:48:46;;;;;;;14.17;8.53;;;;;;;1.45;100.00;95021.34;5033701;28;20193;-62
2021/12/14 08:51:17;;;;;;;13.33;8.53;;;;;;;1.40;100.00;95029.94;5034056;28;20194;-60
2021/12/14 08:53:45;;;;;;;15.40;9.00;;;;;;;1.39;100.00;95029.13;5032220;28;20194;-63
2021/12/14 08:56:12;;;;;;;14.60;9.27;;;;;;;1.47;100.00;95029.63;5032317;28;20210;-61
2021/12/14 08:58:40;;;;;;;15.37;9.70;;;;;;;1.74;100.00;95025.06;5032149;28;20248;-62
2021/12/14 09:01:12;;;;;;;16.47;9.40;;;;;;;1.87;100.00;95020.31;5033509;28;20206;-62
2021/12/14 09:03:45;;;;;;;14.43;10.37;;;;;;;1.77;100.00;95021.59;5033440;28;20185;-61
2021/12/14 09:06:16;;;;;;;14.13;9.43;;;;;;;1.70;100.00;95019.38;5033816;28;20197;-61
2021/12/14 09:08:43;;;;;;;16.03;10.37;;;;;;;1.51;100.00;95023.59;5031965;28;20589;-61
2021/12/14 09:11:11;;;;;;;15.80;10.20;;;;;;;1.38;100.00;95012.47;5032230;28;20301;-61
2021/12/14 09:13:39;;;;;;;13.27;8.50;;;;;;;1.31;100.00;95020.31;5033377;28;20190;-62
2021/12/14 09:16:16;;;;;;;15.07;9.37;;;;;;;1.39;100.00;95019.13;5033201;28;20213;-63
2021/12/14 09:18:48;;;;;;;14.00;8.93;;;;;;;1.39;100.00;95006.59;5031829;28;20186;-63
2021/12/14 09:21:21;;;;;;;16.13;9.30;;;;;;;1.37;100.00;95013.38;5033512;28;20263;-65
2021/12/14 09:23:58;;;;;;;16.90;9.03;;;;;;;1.45;100.00;95006.31;5032949;28;20220;-65
2021/12/14 09:26:28;;;;;;;13.33;8.83;;;;;;;1.57;100.00;95002.47;5031530;28;20210;-64
2021/12/14 09:28:54;;;;;;;15.13;10.57;;;;;;;1.42;100.00;95001.44;5032889;28;20174;-65
2021/12/14 09:31:24;;;;;;;15.00;9.83;;;;;;;1.50;100.00;94988.56;5033176;28;20237;-63
2021/12/14 09:33:53;;;;;;;15.37;10.03;;;;;;;1.43;100.00;94993.06;5031710;28;20248;-64
2021/12/14 09:36:19;;;;;;;13.03;9.60;;;;;;;1.47;100.00;94991.22;5033061;28;20684;-64
2021/12/14 09:38:49;;;;;;;16.07;9.63;;;;;;;1.44;100.00;94994.66;5032664;28;20278;-64
2021/12/14 09:41:18;;;;;;;14.07;10.20;;;;;;;1.49;100.00;94984.47;5031590;28;20376;-64
2021/12/14 09:43:47;;;;;;;14.43;10.17;;;;;;;1.63;100.00;94987.97;5031621;28;20185;-66
2021/12/14 09:46:14;;;;;;;15.53;11.17;;;;;;;1.64;100.00;94991.28;5033036;28;20206;-66
2021/12/14 09:48:44;;;;;;;19.33;10.37;;;;;;;1.42;100.00;94983.09;5031143;28;20188;-66
2021/12/14 09:51:14;;;;;;;16.97;11.30;;;;;;;1.56;100.00;94980.78;5032431;28;20285;-65
2021/12/14 09:53:50;;;;;;;14.43;9.63;;;;;;;1.75;100.00;94980.78;5031697;28;20178;-65
2021/12/14 09:56:19;;;;;;;18.67;11.97;;;;;;;1.64;100.00;94974.56;5031519;28;20209;-64
2021/12/14 09:58:50;;;;;;;19.10;12.23;;;;;;;1.79;100.00;94979.75;5031034;28;20190;-64
2021/12/14 10:01:27;;;;;;;18.50;11.57;;;;;;;1.79;100.00;94979.75;5032038;28;20218;-63
2021/12/14 10:03:57;;;;;;;18.20;11.17;;;;;;;1.89;100.00;94976.75;5032426;28;20175;-62
2021/12/14 10:06:26;;;;;;;17.67;10.43;;;;;;;2.05;100.00;94971.84;5032036;28;20210;-63
2021/12/14 10:09:00;;;;;;;22.30;11.87;;;;;;;2.01;100.00;94980.38;5032325;28;20209;-63
2021/12/14 10:11:46;;;;;;;16.60;10.43;;;;;;;1.96;100.00;94979.81;5032204;28;20296;-63
2021/12/14 10:14:13;;;;;;;18.17;12.00;;;;;;;1.94;100.00;94974.06;5032054;28;20174;-63
2021/12/14 10:16:39;;;;;;;17.47;10.50;;;;;;;2.08;100.00;94976.72;5030874;28;20681;-62
2021/12/14 10:19:12;;;;;;;15.73;11.03;;;;;;;1.81;100.00;94978.00;5031930;28;20201;-63
2021/12/14 10:24:27;;;;;;;17.97;10.87;;;;;;;1.82;100.00;94967.88;5032420;28;20223;-63
2021/12/14 10:27:00;;;;;;;18.37;10.93;;;;;;;1.84;100.00;94975.34;5031624;28;20601;-61
2021/12/14 10:29:29;;;;;;;19.80;11.67;;;;;;;2.01;100.00;94966.16;5031980;28;20179;-63
2021/12/14 10:32:02;;;;;;;19.17;11.33;;;;;;;2.05;100.00;94960.13;5031755;28;20190;-63
2021/12/14 10:34:32;;;;;;;16.87;11.23;;;;;;;2.15;100.00;94963.81;5032205;28;20221;-62
2021/12/14 10:37:16;;;;;;;19.53;10.47;;;;;;;2.06;100.00;94970.97;5032204;28;20215;-62
2021/12/14 10:45:28;;;;;;;97.63;44.37;;;;;;;2.13;100.00;94964.78;5015546;28;20198;-66
2021/12/14 10:47:57;;;;;;;16.87;10.87;;;;;;;1.89;100.00;94956.72;5031200;28;20706;-64
2021/12/14 10:50:26;;;;;;;19.43;12.00;;;;;;;1.79;100.00;94959.72;5031859;28;20174;-63
2021/12/14 10:52:52;;;;;;;16.27;10.77;;;;;;;1.60;100.00;94959.72;5031411;28;20190;-64
2021/12/14 10:55:29;;;;;;;17.67;10.27;;;;;;;1.61;100.00;94962.19;5030189;28;20204;-63
2021/12/14 10:57:54;;;;;;;18.30;10.23;;;;;;;1.68;100.00;94951.00;5029840;28;20285;-63
2021/12/14 11:00:30;;;;;;;16.80;11.60;;;;;;;1.55;100.00;94954.94;5029574;28;20222;-63
2021/12/14 11:03:10;;;;;;;17.57;11.47;;;;;;;1.67;100.00;94956.91;5029375;28;20169;-65
2021/12/14 11:05:39;;;;;;;18.03;11.23;;;;;;;1.65;100.00;94952.81;5032800;28;20204;-63
2021/12/14 11:08:24;;;;;;;19.83;13.17;;;;;;;1.65;100.00;94947.81;5035098;28;20212;-64
2021/12/14 11:10:53;;;;;;;20.37;12.63;;;;;;;1.79;100.00;94952.19;5035239;28;20211;-65
2021/12/14 11:13:18;;;;;;;23.00;13.67;;;;;;;1.90;100.00;94947.50;5035108;28;20187;-66
2021/12/14 11:15:49;;;;;;;22.20;13.60;;;;;;;2.01;100.00;94945.28;5035571;28;20277;-63
2021/12/14 11:18:21;;;;;;;15.87;10.57;;;;;;;2.10;100.00;94947.38;5035345;28;20269;-64
2021/12/14 11:20:57;;;;;;;18.37;11.30;;;;;;;1.86;100.00;94941.00;5035288;28;20219;-65
2021/12/14 11:23:33;;;;;;;18.33;11.63;;;;;;;1.80;100.00;94937.06;5034407;28;20174;-64
2021/12/14 11:26:19;;;;;;;26.13;10.90;;;;;;;1.79;100.00;94930.47;5035308;28;20292;-65
2021/12/14 11:28:55;;;;;;;18.93;11.43;;;;;;;1.79;100.00;94940.47;5033848;28;20193;-64
2021/12/14 11:31:44;;;;;;;19.77;11.97;;;;;;;1.92;100.00;94941.53;5035456;28;20205;-64
2021/12/14 11:34:16;;;;;;;16.67;10.90;;;;;;;1.94;100.00;94936.47;5034725;28;20185;-61
2021/12/14 11:37:07;;;;;;;19.77;11.13;;;;;;;2.09;100.00;94936.53;5033566;28;20297;-65
2021/12/14 11:39:41;;;;;;;18.20;11.07;;;;;;;2.03;100.00;94938.50;5034705;28;20202;-63
2021/12/14 11:42:21;;;;;;;20.70;11.80;;;;;;;1.93;100.00;94930.63;5035013;28;20213;-64
2021/12/14 11:45:15;;;;;;;24.07;11.67;;;;;;;1.96;100.00;94934.69;5034370;28;20186;-64
2021/12/14 11:47:50;;;;;;;18.47;11.50;;;;;;;2.01;100.00;94942.78;5034544;28;20303;-65
2021/12/14 11:50:35;;;;;;;17.63;11.60;;;;;;;1.85;100.00;94930.19;5034952;28;20182;-65
2021/12/14 11:53:08;;;;;;;19.23;11.03;;;;;;;1.95;100.00;94930.53;5034668;28;20206;-61
2021/12/14 11:55:54;;;;;;;18.77;11.67;;;;;;;1.87;100.00;94925.91;5034489;28;20186;-64
2021/12/14 11:58:33;;;;;;;21.80;12.53;;;;;;;1.89;100.00;94925.81;5034458;28;20182;-63
2021/12/14 12:01:30;;;;;;;21.83;12.10;;;;;;;1.91;100.00;94921.53;5034244;28;20210;-61
2021/12/14 12:04:03;;;;;;;22.03;12.43;;;;;;;1.95;100.00;94926.34;5028984;28;20210;-64
2021/12/14 12:09:37;;;;;;;22.60;12.90;;;;;;;2.08;100.00;94932.38;5034972;28;20621;-64
2021/12/14 12:12:06;;;;;;;21.47;12.13;;;;;;;1.99;100.00;94927.00;5032926;28;20230;-65
2021/12/14 12:14:40;;;;;;;21.60;12.20;;;;;;;2.09;100.00;94923.19;5033938;28;20213;-65
2021/12/14 12:17:23;;;;;;;20.83;12.93;;;;;;;1.96;100.00;94919.66;5033929;28;20219;-63
2021/12/14 12:20:27;;;;;;;20.40;11.57;;;;;;;2.03;100.00;94923.47;5032951;28;20228;-63
2021/12/14 12:23:04;;;;;;;22.50;12.57;;;;;;;1.93;100.00;94918.09;5030048;28;20199;-63
2021/12/14 12:25:57;;;;;;;21.00;11.90;;;;;;;1.92;100.00;94920.69;5032873;28;20190;-63
2021/12/14 12:28:25;;;;;;;21.97;11.87;;;;;;;1.95;100.00;94920.53;5034496;28;20217;-65
2021/12/14 12:30:55;;;;;;;23.17;13.00;;;;;;;1.85;100.00;94921.84;5034022;28;20213;-65
2021/12/14 12:33:38;;;;;;;20.87;12.03;;;;;;;1.77;100.00;94918.88;5016095;28;20197;-62